Time;durP1;ratioP1;P1;durP2;ratioP2;P2;SDS_P1;SDS_P2;PMS_P1;PMS_P2;Temp;Humidity;BMP_temperature;BMP_pressure;BME280_temperature;BME280_humidity;BME280_pressure;Samples;Min_cycle;Max_cycle;Signal;HPM_P1;HPM_P2
2023/01/19 00:00:16;;;;;;;117.70;59.00;;;;;;;-0.82;100.00;96689.12;106616;1253;59996;-76
2023/01/19 00:03:03;;;;;;;107.30;48.40;;;;;;;-0.81;100.00;96681.16;106626;1253;61621;-78
2023/01/19 00:05:29;;;;;;;99.10;46.10;;;;;;;-0.79;100.00;96675.17;106759;1256;74562;-78
2023/01/19 00:08:13;;;;;;;113.30;48.10;;;;;;;-0.76;100.00;96675.23;106744;1253;59791;-79
2023/01/19 00:10:41;;;;;;;98.10;49.60;;;;;;;-0.72;100.00;96675.92;106664;1256;63934;-76
2023/01/19 00:13:07;;;;;;;95.60;44.60;;;;;;;-0.69;100.00;96682.63;106747;1254;59784;-78
2023/01/19 00:15:33;;;;;;;91.40;46.40;;;;;;;-0.67;100.00;96682.77;106687;1254;59888;-79
2023/01/19 00:18:00;;;;;;;93.00;46.70;;;;;;;-0.67;100.00;96688.74;106711;1252;61332;-76
2023/01/19 00:20:26;;;;;;;91.90;45.90;;;;;;;-0.67;100.00;96695.78;106688;1254;61187;-78
2023/01/19 00:22:52;;;;;;;82.60;40.80;;;;;;;-0.68;100.00;96694.78;106627;1256;59874;-76
2023/01/19 00:25:19;;;;;;;76.40;38.70;;;;;;;-0.67;100.00;96689.49;106833;1252;59996;-77
2023/01/19 00:27:48;;;;;;;64.40;36.60;;;;;;;-0.66;100.00;96678.16;106967;1254;59920;-76
2023/01/19 00:30:14;;;;;;;;;;;;;;;-0.66;100.00;96677.17;107033;1254;73450;-78
2023/01/19 00:32:41;;;;;;;69.60;34.10;;;;;;;-0.64;100.00;96677.41;107193;1254;70642;-77
2023/01/19 00:35:08;;;;;;;63.90;32.20;;;;;;;-0.61;100.00;96686.27;107132;1254;72569;-76
2023/01/19 00:37:34;;;;;;;66.50;34.00;;;;;;;-0.59;100.00;96685.31;107106;1254;59802;-76
2023/01/19 00:40:00;;;;;;;63.00;32.10;;;;;;;-0.60;100.00;96688.48;106897;1254;60892;-76
2023/01/19 00:42:39;;;;;;;66.20;33.50;;;;;;;-0.59;100.00;96691.71;106675;1254;59999;-77
2023/01/19 00:45:07;;;;;;;68.60;36.30;;;;;;;-0.56;100.00;96700.80;106815;1253;71049;-77
2023/01/19 00:47:34;;;;;;;72.60;36.20;;;;;;;-0.52;100.00;96701.11;107269;1256;72584;-76
2023/01/19 00:50:00;;;;;;;81.90;40.50;;;;;;;-0.53;100.00;96699.50;106608;1252;59928;-76
2023/01/19 00:52:26;;;;;;;84.90;44.60;;;;;;;-0.50;100.00;96699.08;106697;1254;61307;-76
2023/01/19 00:54:53;;;;;;;83.80;46.10;;;;;;;-0.49;100.00;96697.45;106599;1254;61221;-76
2023/01/19 00:57:19;;;;;;;98.90;46.50;;;;;;;-0.51;100.00;96700.20;106591;1254;60746;-78
2023/01/19 00:59:45;;;;;;;100.60;47.10;;;;;;;-0.54;100.00;96695.92;106623;1253;59987;-78
2023/01/19 01:02:12;;;;;;;98.20;48.10;;;;;;;-0.58;100.00;96686.35;106633;1254;59873;-77
2023/01/19 01:04:39;;;;;;;105.40;49.50;;;;;;;-0.59;100.00;96683.40;106657;1253;61110;-76
2023/01/19 01:07:05;;;;;;;97.10;49.90;;;;;;;-0.59;100.00;96685.80;106657;1254;61992;-78
2023/01/19 01:09:32;;;;;;;96.60;46.80;;;;;;;-0.54;100.00;96686.08;106657;1254;61928;-76
2023/01/19 01:11:58;;;;;;;99.30;50.80;;;;;;;-0.51;100.00;96681.11;106488;1257;61783;-78
2023/01/19 01:14:24;;;;;;;95.40;48.40;;;;;;;-0.50;100.00;96681.35;106623;1254;59853;-78
2023/01/19 01:16:51;;;;;;;100.90;46.10;;;;;;;-0.48;100.00;96683.89;106600;1253;62122;-76
2023/01/19 01:19:18;;;;;;;93.20;48.10;;;;;;;-0.46;100.00;96686.41;106579;1253;60984;-77
2023/01/19 01:21:44;;;;;;;107.70;50.90;;;;;;;-0.46;100.00;96681.84;106646;1254;59874;-78
2023/01/19 01:24:11;;;;;;;90.90;46.70;;;;;;;-0.43;100.00;96678.10;106597;1254;61339;-76
2023/01/19 01:26:37;;;;;;;97.50;50.80;;;;;;;-0.46;100.00;96670.83;106544;1253;61140;-78
2023/01/19 01:29:05;;;;;;;102.70;50.60;;;;;;;-0.45;100.00;96667.33;106471;1254;59915;-78
2023/01/19 01:31:31;;;;;;;90.30;45.10;;;;;;;-0.45;100.00;96667.48;106619;1254;74488;-78
2023/01/19 01:33:57;;;;;;;94.90;45.60;;;;;;;-0.44;100.00;96663.66;106617;1254;61877;-76
2023/01/19 01:36:27;;;;;;;87.10;40.70;;;;;;;-0.42;100.00;96662.11;106643;1254;60800;-78
2023/01/19 01:38:54;;;;;;;88.40;41.90;;;;;;;-0.38;100.00;96657.53;106596;1252;59887;-78
2023/01/19 01:41:20;;;;;;;82.80;39.90;;;;;;;-0.36;100.00;96655.70;106633;1256;60978;-77
2023/01/19 01:43:49;;;;;;;79.70;40.50;;;;;;;-0.33;100.00;96653.32;106620;1254;61697;-76
2023/01/19 01:46:15;;;;;;;77.90;42.00;;;;;;;-0.30;100.00;96653.98;106710;1254;71074;-78
2023/01/19 01:48:49;;;;;;;91.60;47.10;;;;;;;-0.31;100.00;96656.63;106637;1253;72689;-77
2023/01/19 01:51:28;;;;;;;91.80;47.40;;;;;;;-0.30;100.00;96655.74;106698;1254;61261;-78
2023/01/19 01:54:01;;;;;;;95.20;47.10;;;;;;;-0.34;100.00;96659.20;106586;1253;59884;-78
2023/01/19 01:56:37;;;;;;;96.20;47.60;;;;;;;-0.33;100.00;96653.37;106582;1254;74634;-76
2023/01/19 01:59:07;;;;;;;99.60;49.40;;;;;;;-0.33;100.00;96652.18;106670;1253;70303;-78
2023/01/19 02:04:19;;;;;;;94.30;48.60;;;;;;;-0.41;100.00;96641.27;106643;1253;60777;-78
2023/01/19 02:15:02;;;;;;;88.10;44.70;;;;;;;-0.35;100.00;96645.01;106737;1251;72528;-77
2023/01/19 02:17:28;;;;;;;91.10;44.70;;;;;;;-0.37;100.00;96642.06;106649;1253;61378;-76
2023/01/19 02:19:56;;;;;;;79.40;39.30;;;;;;;-0.36;100.00;96641.27;106570;1251;62223;-77
2023/01/19 02:22:34;;;;;;;84.20;41.60;;;;;;;-0.32;100.00;96633.42;106730;1250;74591;-77
2023/01/19 02:25:03;;;;;;;79.10;40.00;;;;;;;-0.30;100.00;96629.81;106745;1251;71308;-78
2023/01/19 02:27:30;;;;;;;81.30;40.70;;;;;;;-0.26;100.00;96630.83;106566;1254;71708;-78
2023/01/19 02:29:58;;;;;;;80.50;40.90;;;;;;;-0.26;100.00;96635.25;106732;1252;59862;-78
2023/01/19 02:32:25;;;;;;;68.40;37.50;;;;;;;-0.23;100.00;96639.93;106602;1254;61231;-77
2023/01/19 02:34:52;;;;;;;73.50;38.20;;;;;;;-0.23;100.00;96641.80;106557;1254;61260;-78
2023/01/19 02:37:18;;;;;;;84.90;43.60;;;;;;;-0.22;100.00;96644.30;106655;1254;71010;-79
2023/01/19 02:39:50;;;;;;;80.80;41.10;;;;;;;-0.21;100.00;96646.02;106555;1254;61237;-78
2023/01/19 02:42:21;;;;;;;86.10;44.30;;;;;;;-0.19;100.00;96659.89;106904;1259;59770;-78
2023/01/19 02:44:48;;;;;;;80.50;40.30;;;;;;;-0.20;100.00;96663.81;106610;1251;61183;-77
2023/01/19 02:47:14;;;;;;;80.80;41.30;;;;;;;-0.21;100.00;96664.34;106644;1251;74563;-76
2023/01/19 02:49:41;;;;;;;84.10;39.70;;;;;;;-0.18;100.00;96663.84;106763;1251;59820;-77
2023/01/19 02:52:11;;;;;;;79.60;38.10;;;;;;;-0.15;100.00;96666.08;106747;1251;61272;-78
2023/01/19 02:54:56;;;;;;;70.10;38.90;;;;;;;-0.14;100.00;96662.96;109531;1250;58907;-77
2023/01/19 02:57:50;;;;;;;87.40;43.10;;;;;;;-0.16;100.00;96662.29;106838;1251;59757;-77
2023/01/19 03:00:45;;;;;;;77.40;39.20;;;;;;;-0.13;100.00;96665.48;106756;1254;73737;-78
2023/01/19 03:03:29;;;;;;;70.80;36.30;;;;;;;-0.12;100.00;96660.80;106791;1254;71133;-79
2023/01/19 03:06:08;;;;;;;67.10;35.90;;;;;;;-0.09;100.00;96652.27;106599;1253;72720;-77
2023/01/19 03:08:46;;;;;;;58.20;32.10;;;;;;;-0.07;100.00;96657.90;106659;1254;61489;-78
2023/01/19 03:11:13;;;;;;;75.40;36.40;;;;;;;-0.07;100.00;96663.98;106580;1252;59718;-77
2023/01/19 03:14:02;;;;;;;68.30;34.30;;;;;;;-0.05;100.00;96669.20;106708;1254;61307;-76
2023/01/19 03:16:35;;;;;;;68.20;37.00;;;;;;;-0.04;100.00;96669.16;106756;1254;71587;-78
2023/01/19 03:19:32;;;;;;;56.20;33.20;;;;;;;-0.02;100.00;96669.83;106561;1254;71547;-78
2023/01/19 03:22:04;;;;;;;57.20;30.60;;;;;;;-0.01;100.00;96669.20;106626;1254;61327;-78
2023/01/19 03:24:33;;;;;;;57.50;31.60;;;;;;;0.01;100.00;96672.70;106769;1254;59837;-78
2023/01/19 03:27:01;;;;;;;64.40;31.30;;;;;;;0.03;100.00;96673.74;106530;1254;73467;-77
2023/01/19 03:29:30;;;;;;;54.40;26.40;;;;;;;0.05;100.00;96675.58;106725;1253;69894;-78
2023/01/19 03:31:58;;;;;;;50.30;25.30;;;;;;;0.07;100.00;96679.44;106546;1253;62881;-77
2023/01/19 03:34:24;;;;;;;37.80;19.50;;;;;;;0.07;100.00;96689.13;106713;1254;62028;-78
2023/01/19 03:36:52;;;;;;;46.30;23.00;;;;;;;0.08;100.00;96693.31;106521;1253;59852;-76
2023/01/19 03:39:23;;;;;;;40.20;22.90;;;;;;;0.08;100.00;96694.80;106520;1252;73483;-77
2023/01/19 03:41:53;;;;;;;43.00;23.20;;;;;;;0.06;100.00;96697.75;106629;1254;62450;-78
2023/01/19 03:44:19;;;;;;;42.40;22.50;;;;;;;0.08;100.00;96693.04;106533;1253;62856;-76
2023/01/19 03:46:45;;;;;;;39.50;22.60;;;;;;;0.11;100.00;96687.98;106496;1253;60448;-76
2023/01/19 03:49:12;;;;;;;48.80;24.20;;;;;;;0.13;100.00;96685.86;106655;1253;60352;-78
2023/01/19 03:51:38;;;;;;;51.50;28.70;;;;;;;0.15;100.00;96692.97;106507;1255;60259;-76
2023/01/19 03:54:05;;;;;;;57.70;31.10;;;;;;;0.16;100.00;96702.04;106460;1254;61342;-76
2023/01/19 03:56:31;;;;;;;62.70;31.00;;;;;;;0.16;100.00;96704.30;106655;1252;62104;-78
2023/01/19 03:58:58;;;;;;;60.40;30.10;;;;;;;0.19;100.00;96704.14;106597;1253;62002;-77
2023/01/19 04:01:24;;;;;;;57.50;29.50;;;;;;;0.22;100.00;96698.15;106755;1254;59908;-77
2023/01/19 04:03:51;;;;;;;58.10;30.60;;;;;;;0.23;100.00;96692.94;106649;1254;60934;-78
2023/01/19 04:06:18;;;;;;;57.20;30.70;;;;;;;0.23;100.00;96693.24;106689;1254;60897;-76
2023/01/19 04:08:46;;;;;;;57.80;29.80;;;;;;;0.24;100.00;96686.77;106598;1253;64077;-78
2023/01/19 04:11:13;;;;;;;60.80;32.40;;;;;;;0.27;100.00;96681.59;106551;1254;59951;-78
2023/01/19 04:13:39;;;;;;;53.90;29.80;;;;;;;0.28;100.00;96667.86;106620;1256;61980;-78
2023/01/19 04:16:06;;;;;;;61.50;36.30;;;;;;;0.27;100.00;96658.52;106791;1253;60120;-77
2023/01/19 04:18:33;;;;;;;70.60;36.40;;;;;;;0.27;100.00;96653.84;106630;1254;60196;-77
2023/01/19 04:21:00;;;;;;;63.20;32.40;;;;;;;0.26;100.00;96653.94;106675;1253;71981;-78
2023/01/19 04:23:27;;;;;;;55.60;30.30;;;;;;;0.27;100.00;96660.13;106689;1254;59938;-76
2023/01/19 04:26:01;;;;;;;54.40;29.80;;;;;;;0.29;100.00;96676.13;106847;1253;62027;-76
2023/01/19 04:28:28;;;;;;;69.50;39.20;;;;;;;0.28;100.00;96685.65;106728;1254;74625;-78
2023/01/19 04:30:55;;;;;;;61.40;34.20;;;;;;;0.27;100.00;96681.54;106953;1253;70976;-76
2023/01/19 04:33:21;;;;;;;58.20;32.60;;;;;;;0.26;100.00;96683.50;106655;1254;61801;-78
2023/01/19 04:35:48;;;;;;;52.00;30.40;;;;;;;0.28;100.00;96689.55;106473;1251;61209;-78
2023/01/19 04:38:15;;;;;;;54.90;29.50;;;;;;;0.29;100.00;96690.14;106478;1252;59815;-77
2023/01/19 04:40:41;;;;;;;126.10;77.00;;;;;;;0.32;100.00;96698.05;106633;1252;73404;-76
2023/01/19 04:43:08;;;;;;;78.20;42.20;;;;;;;0.35;100.00;96698.21;106648;1254;62008;-78
2023/01/19 04:45:35;;;;;;;74.80;39.20;;;;;;;0.36;100.00;96696.58;106710;1252;71419;-77
2023/01/19 04:48:05;;;;;;;66.00;35.00;;;;;;;0.37;100.00;96705.17;106662;1253;61285;-77
2023/01/19 04:50:31;;;;;;;71.70;38.40;;;;;;;0.38;100.00;96705.45;106838;1253;60000;-78
2023/01/19 04:52:58;;;;;;;87.10;44.00;;;;;;;0.40;100.00;96711.34;106639;1254;60914;-76
2023/01/19 04:55:24;;;;;;;108.90;54.80;;;;;;;0.41;100.00;96712.20;106636;1253;62033;-77
2023/01/19 04:57:51;;;;;;;112.20;58.90;;;;;;;0.44;100.00;96713.15;106593;1252;59899;-77
2023/01/19 05:00:17;;;;;;;113.10;62.10;;;;;;;0.46;100.00;96708.38;106549;1256;60110;-77
2023/01/19 05:02:44;;;;;;;104.30;61.60;;;;;;;0.49;100.00;96702.13;106598;1254;59932;-78
2023/01/19 05:05:11;;;;;;;98.30;57.80;;;;;;;0.52;100.00;96692.54;106614;1254;61326;-78
2023/01/19 05:07:41;;;;;;;93.80;56.80;;;;;;;0.58;100.00;96689.00;106657;1254;69757;-79
2023/01/19 05:10:10;;;;;;;109.90;60.00;;;;;;;0.62;100.00;96687.90;106481;1251;70996;-77
2023/01/19 05:12:36;;;;;;;118.00;67.20;;;;;;;0.63;100.00;96688.54;106648;1254;61381;-77
2023/01/19 05:15:03;;;;;;;114.30;62.50;;;;;;;0.65;100.00;96693.30;106614;1254;61224;-76
2023/01/19 05:17:29;;;;;;;97.30;51.60;;;;;;;0.65;100.00;96695.87;106648;1252;65910;-77
2023/01/19 05:19:56;;;;;;;115.10;55.40;;;;;;;0.62;100.00;96694.89;106653;1252;60947;-76
2023/01/19 05:22:23;;;;;;;115.90;55.50;;;;;;;0.55;100.00;96689.35;106530;1256;61427;-78
2023/01/19 05:24:49;;;;;;;112.80;51.90;;;;;;;0.52;100.00;96690.38;106649;1252;61014;-77
2023/01/19 05:27:16;;;;;;;100.90;49.00;;;;;;;0.51;100.00;96688.34;106547;1254;61439;-78
2023/01/19 05:29:42;;;;;;;108.10;53.20;;;;;;;0.51;100.00;96688.88;106646;1255;59703;-77
2023/01/19 05:32:08;;;;;;;132.30;60.40;;;;;;;0.52;100.00;96687.83;106691;1253;61986;-76
2023/01/19 05:34:35;;;;;;;136.80;58.00;;;;;;;0.48;100.00;96687.61;106667;1254;59879;-77
2023/01/19 05:37:02;;;;;;;112.80;51.90;;;;;;;0.46;100.00;96689.93;106640;1253;59773;-77
2023/01/19 05:39:29;;;;;;;82.20;38.60;;;;;;;0.46;100.00;96686.20;106618;1254;60930;-77
2023/01/19 05:41:55;;;;;;;68.70;36.10;;;;;;;0.47;100.00;96686.54;106619;1254;74527;-78
2023/01/19 05:44:21;;;;;;;62.00;34.90;;;;;;;0.46;100.00;96691.59;106647;1253;60822;-78
2023/01/19 05:46:48;;;;;;;64.80;37.30;;;;;;;0.45;100.00;96698.09;106666;1253;62010;-77
2023/01/19 05:49:14;;;;;;;69.80;35.00;;;;;;;0.46;100.00;96700.01;106601;1254;62054;-78
2023/01/19 05:51:44;;;;;;;64.50;31.50;;;;;;;0.49;100.00;96707.34;106634;1253;60917;-77
2023/01/19 05:54:13;;;;;;;72.90;40.90;;;;;;;0.49;100.00;96711.88;106668;1252;75625;-78
2023/01/19 05:56:39;;;;;;;;;;;;;;;0.45;100.00;96716.95;106730;1257;69861;-77
2023/01/19 05:59:06;;;;;;;61.50;35.50;;;;;;;0.43;100.00;96712.12;106658;1254;60951;-77
2023/01/19 06:01:34;;;;;;;71.30;36.40;;;;;;;0.43;100.00;96708.87;106723;1254;59860;-77
2023/01/19 06:04:04;;;;;;;77.70;41.40;;;;;;;0.43;100.00;96710.11;106700;1253;60191;-77
2023/01/19 06:06:30;;;;;;;91.60;46.10;;;;;;;0.42;100.00;96714.77;106652;1254;59887;-77
2023/01/19 06:08:56;;;;;;;94.60;46.50;;;;;;;0.42;100.00;96715.20;106676;1254;60299;-79
2023/01/19 06:11:23;;;;;;;93.60;48.50;;;;;;;0.43;100.00;96716.77;106649;1256;61288;-78
2023/01/19 06:13:49;;;;;;;87.50;49.50;;;;;;;0.43;100.00;96717.52;106645;1255;61412;-77
2023/01/19 06:16:16;;;;;;;87.10;47.30;;;;;;;0.43;100.00;96712.40;106618;1254;62098;-77
2023/01/19 06:18:42;;;;;;;79.00;41.70;;;;;;;0.41;100.00;96718.17;106741;1254;60931;-77
2023/01/19 06:21:09;;;;;;;78.20;42.00;;;;;;;0.40;100.00;96734.36;106759;1256;60104;-76
2023/01/19 06:23:35;;;;;;;66.90;35.90;;;;;;;0.39;100.00;96751.14;106660;1254;61309;-78
2023/01/19 06:26:02;;;;;;;66.10;36.10;;;;;;;0.39;100.00;96761.11;106777;1254;60095;-78
2023/01/19 06:28:28;;;;;;;62.30;34.00;;;;;;;0.42;100.00;96768.66;106628;1253;61758;-77
2023/01/19 06:30:55;;;;;;;68.50;37.70;;;;;;;0.43;100.00;96774.07;106567;1253;61888;-78
2023/01/19 06:33:21;;;;;;;76.70;42.20;;;;;;;0.44;100.00;96777.86;106585;1253;60920;-78
2023/01/19 06:35:48;;;;;;;94.80;54.40;;;;;;;0.45;100.00;96780.23;106559;1253;61350;-77
2023/01/19 06:38:17;;;;;;;86.20;51.90;;;;;;;0.47;100.00;96785.15;106659;1252;59902;-78
2023/01/19 06:40:44;;;;;;;117.70;62.70;;;;;;;0.47;100.00;96787.92;106574;1254;61698;-78
2023/01/19 06:43:11;;;;;;;126.30;64.50;;;;;;;0.47;100.00;96795.65;106862;1254;73583;-78
2023/01/19 06:45:38;;;;;;;130.20;65.30;;;;;;;0.49;100.00;96813.86;106917;1253;70007;-78
2023/01/19 06:48:05;;;;;;;145.50;76.70;;;;;;;0.53;100.00;96824.07;106804;1253;59775;-78
2023/01/19 06:50:31;;;;;;;135.80;71.40;;;;;;;0.54;100.00;96822.90;106797;1254;61900;-77
2023/01/19 06:52:57;;;;;;;173.20;84.80;;;;;;;0.55;100.00;96815.49;106584;1256;62032;-76
2023/01/19 06:55:24;;;;;;;134.50;72.30;;;;;;;0.54;100.00;96818.38;106587;1255;59293;-77
2023/01/19 06:57:57;;;;;;;128.80;66.90;;;;;;;0.56;100.00;96829.00;106587;1253;59784;-77
2023/01/19 07:00:24;;;;;;;112.60;61.70;;;;;;;0.58;100.00;96841.60;106486;1253;175751;-77
2023/01/19 07:02:51;;;;;;;108.60;61.50;;;;;;;0.56;100.00;96848.02;107692;1253;59777;-77
2023/01/19 07:05:17;;;;;;;106.50;64.10;;;;;;;0.57;100.00;96840.04;106950;1253;61232;-78
2023/01/19 07:07:55;;;;;;;106.00;58.50;;;;;;;0.60;100.00;96840.36;107585;1256;74291;-77
2023/01/19 07:10:22;;;;;;;101.80;57.70;;;;;;;0.58;100.00;96839.20;107512;1257;71029;-77
2023/01/19 07:12:49;;;;;;;105.30;58.10;;;;;;;0.56;100.00;96836.20;108937;1253;71471;-76
2023/01/19 07:15:18;;;;;;;110.20;59.80;;;;;;;0.58;100.00;96827.31;107924;1257;61244;-78
2023/01/19 07:17:44;;;;;;;;;;;;;;;0.58;100.00;96822.79;107393;1253;61218;-76
2023/01/19 07:20:14;;;;;;;91.90;52.00;;;;;;;0.57;100.00;96807.95;106806;1253;61710;-76
2023/01/19 07:22:42;;;;;;;103.90;54.70;;;;;;;0.56;100.00;96810.29;107856;1254;71021;-78
2023/01/19 07:25:08;;;;;;;95.00;51.00;;;;;;;0.59;100.00;96815.92;107270;1253;71699;-76
2023/01/19 07:27:35;;;;;;;92.70;48.70;;;;;;;0.60;100.00;96817.54;106954;1253;61218;-76
2023/01/19 07:30:03;;;;;;;100.50;51.90;;;;;;;0.60;100.00;96814.70;107307;1252;60004;-78
2023/01/19 07:32:29;;;;;;;98.10;50.70;;;;;;;0.61;100.00;96800.83;108503;1253;75545;-76
2023/01/19 07:34:56;;;;;;;113.70;60.70;;;;;;;0.63;100.00;96789.48;107145;1253;60812;-78
2023/01/19 07:37:22;;;;;;;119.60;64.70;;;;;;;0.67;100.00;96785.84;107750;1256;73111;-78
2023/01/19 07:39:49;;;;;;;118.30;63.60;;;;;;;0.68;100.00;96782.56;107153;1253;60955;-78
2023/01/19 07:42:15;;;;;;;119.90;62.00;;;;;;;0.70;100.00;96778.23;107859;1252;61593;-76
2023/01/19 07:44:42;;;;;;;142.10;72.60;;;;;;;0.71;100.00;96779.14;108629;1252;59241;-79
2023/01/19 07:47:11;;;;;;;123.20;66.20;;;;;;;0.73;100.00;96785.93;107364;1253;60870;-78
2023/01/19 07:49:38;;;;;;;108.50;58.20;;;;;;;0.75;100.00;96793.14;109350;1253;72234;-76
2023/01/19 07:52:04;;;;;;;117.30;59.00;;;;;;;0.72;100.00;96795.20;108801;1253;59723;-76
2023/01/19 07:54:31;;;;;;;134.40;75.20;;;;;;;0.71;100.00;96782.44;108061;1253;61209;-76
2023/01/19 07:56:59;;;;;;;139.80;77.10;;;;;;;0.71;100.00;96794.93;108796;1254;73629;-78
2023/01/19 07:59:29;;;;;;;121.30;67.30;;;;;;;0.74;100.00;96814.33;106823;1254;70629;-76
2023/01/19 08:01:58;;;;;;;116.20;61.90;;;;;;;0.80;100.00;96827.58;108212;1254;72535;-78
2023/01/19 08:04:25;;;;;;;134.00;70.40;;;;;;;0.83;100.00;96829.80;108042;1253;60829;-76
2023/01/19 08:06:52;;;;;;;139.50;73.00;;;;;;;0.78;100.00;96831.83;107724;1254;60939;-79
2023/01/19 08:09:18;;;;;;;191.40;99.10;;;;;;;0.77;100.00;96841.51;107154;1253;62200;-77
2023/01/19 08:11:45;;;;;;;176.90;92.00;;;;;;;0.81;100.00;96845.08;107728;1254;62302;-76
2023/01/19 08:14:11;;;;;;;204.30;105.40;;;;;;;0.87;100.00;96850.92;108048;1254;59840;-76
2023/01/19 08:16:38;;;;;;;173.20;95.70;;;;;;;0.89;100.00;96848.77;107079;1254;59810;-78
2023/01/19 08:19:04;;;;;;;140.90;76.90;;;;;;;0.88;100.00;96849.62;107172;1252;59928;-76
2023/01/19 08:21:32;;;;;;;175.40;93.20;;;;;;;0.85;100.00;96854.36;107270;1253;61300;-78
2023/01/19 08:23:58;;;;;;;185.90;105.90;;;;;;;0.88;100.00;96850.20;107676;1254;71069;-76
2023/01/19 08:26:28;;;;;;;125.80;75.50;;;;;;;0.91;100.00;96850.28;107367;1253;60761;-78
2023/01/19 08:28:56;;;;;;;115.30;71.20;;;;;;;0.90;100.00;96846.00;107090;1254;61391;-79
2023/01/19 08:31:23;;;;;;;139.30;80.30;;;;;;;0.90;100.00;96842.59;107554;1254;59841;-76
2023/01/19 08:33:49;;;;;;;138.60;75.00;;;;;;;0.94;100.00;96837.32;107809;1254;59733;-76
2023/01/19 08:36:16;;;;;;;120.70;65.00;;;;;;;0.97;100.00;96824.08;107546;1254;60994;-77
2023/01/19 08:38:46;;;;;;;101.30;55.60;;;;;;;1.02;100.00;96823.42;106742;1253;59857;-78
2023/01/19 08:41:12;;;;;;;98.50;53.70;;;;;;;1.07;100.00;96826.11;108500;1254;59043;-77
2023/01/19 08:43:39;;;;;;;111.80;57.20;;;;;;;1.09;100.00;96820.54;107745;1253;61019;-77
2023/01/19 08:46:05;;;;;;;108.90;60.20;;;;;;;1.13;100.00;96805.44;107745;1254;73519;-77
2023/01/19 08:48:32;;;;;;;145.20;78.80;;;;;;;1.15;100.00;96803.27;109405;1253;70983;-78
2023/01/19 08:50:59;;;;;;;124.00;70.80;;;;;;;1.18;100.00;96799.88;109441;1253;71620;-77
2023/01/19 08:53:28;;;;;;;105.90;59.40;;;;;;;1.20;100.00;96799.28;109375;1255;58966;-77
2023/01/19 08:56:01;;;;;;;83.80;45.50;;;;;;;1.22;100.00;96805.64;109454;1252;59900;-77
2023/01/19 08:58:28;;;;;;;62.80;35.20;;;;;;;1.25;100.00;96804.29;109043;1251;73482;-77
2023/01/19 09:00:54;;;;;;;66.30;35.10;;;;;;;1.28;100.00;96807.79;106994;1254;71073;-78
2023/01/19 09:03:24;;;;;;;63.40;33.90;;;;;;;1.31;100.00;96818.45;108966;1254;72857;-78
2023/01/19 09:05:50;;;;;;;67.60;35.80;;;;;;;1.33;100.00;96832.14;107371;1254;59824;-77
2023/01/19 09:08:17;;;;;;;65.80;37.20;;;;;;;1.34;100.00;96841.60;107066;1253;61238;-78
2023/01/19 09:10:45;;;;;;;69.00;35.70;;;;;;;1.34;100.00;96841.92;106715;1257;61591;-76
2023/01/19 09:13:11;;;;;;;73.00;37.10;;;;;;;1.37;100.00;96843.09;108102;1255;71347;-77
2023/01/19 09:15:38;;;;;;;68.50;34.20;;;;;;;1.39;100.00;96845.45;106908;1254;72159;-78
2023/01/19 09:18:06;;;;;;;64.90;35.90;;;;;;;1.39;100.00;96848.28;107510;1253;61281;-78
2023/01/19 09:20:34;;;;;;;67.70;38.30;;;;;;;1.40;100.00;96848.29;106960;1254;61397;-76
2023/01/19 09:23:01;;;;;;;99.60;55.30;;;;;;;1.34;100.00;96836.10;108635;1254;73443;-78
2023/01/19 09:25:28;;;;;;;65.20;40.40;;;;;;;1.23;100.00;96843.29;107417;1254;71123;-78
2023/01/19 09:27:55;;;;;;;42.20;26.50;;;;;;;1.10;100.00;96849.68;108183;1253;59781;-77
2023/01/19 09:30:21;;;;;;;54.60;30.00;;;;;;;1.01;100.00;96838.85;107121;1252;61218;-77
2023/01/19 09:32:47;;;;;;;42.30;26.40;;;;;;;1.04;100.00;96826.84;108089;1252;61604;-77
2023/01/19 09:35:14;;;;;;;67.20;42.40;;;;;;;1.04;100.00;96829.92;107118;1254;61725;-78
2023/01/19 09:37:45;;;;;;;58.20;35.20;;;;;;;1.09;100.00;96831.09;107084;1254;62002;-76
2023/01/19 09:40:11;;;;;;;50.20;30.70;;;;;;;1.15;100.00;96832.03;107251;1252;71093;-78
2023/01/19 09:42:42;;;;;;;50.00;32.30;;;;;;;1.17;100.00;96828.14;108573;1254;60832;-78
2023/01/19 09:45:31;;;;;;;51.60;29.50;;;;;;;1.18;100.00;96826.40;107872;1253;59921;-76
2023/01/19 09:47:57;;;;;;;53.10;29.30;;;;;;;1.19;100.00;96824.77;107618;1252;74492;-77
2023/01/19 09:50:26;;;;;;;40.40;25.10;;;;;;;1.22;100.00;96837.41;106835;1253;61219;-76
2023/01/19 09:53:03;;;;;;;55.60;37.20;;;;;;;1.23;100.00;96838.64;107825;1253;71934;-77
2023/01/19 09:55:29;;;;;;;63.00;40.20;;;;;;;1.25;100.00;96827.98;107992;1256;61171;-77
2023/01/19 09:57:56;;;;;;;51.10;35.60;;;;;;;1.22;100.00;96826.31;107124;1252;59674;-79
2023/01/19 10:00:23;;;;;;;43.90;27.10;;;;;;;1.24;100.00;96830.85;107766;1253;75704;-79
2023/01/19 10:03:13;;;;;;;52.70;34.90;;;;;;;1.27;100.00;96818.45;109297;1254;71051;-77
2023/01/19 10:06:07;;;;;;;55.70;34.70;;;;;;;1.30;100.00;96810.44;109135;1253;72561;-78
2023/01/19 10:08:48;;;;;;;45.90;27.90;;;;;;;1.30;100.00;96814.66;108415;1252;60479;-76
2023/01/19 10:11:27;;;;;;;42.00;25.10;;;;;;;1.32;100.00;96812.48;108973;1253;60235;-77
2023/01/19 10:13:54;;;;;;;;;;;;;;;1.25;100.00;96804.50;108331;1253;73406;-76
2023/01/19 10:16:24;;;;;;;40.40;24.70;;;;;;;1.23;100.00;96802.71;107117;1253;60880;-77
2023/01/19 10:18:52;;;;;;;49.40;28.20;;;;;;;1.22;100.00;96796.20;106979;1254;70729;-77
2023/01/19 10:21:37;;;;;;;50.10;27.50;;;;;;;1.10;100.00;96793.91;107070;1256;61223;-78
2023/01/19 10:24:12;;;;;;;49.00;28.50;;;;;;;1.05;100.00;96794.45;107167;1253;60969;-77
2023/01/19 10:26:44;;;;;;;56.70;32.40;;;;;;;1.07;100.00;96794.59;107318;1253;74654;-76
2023/01/19 10:29:35;;;;;;;58.00;30.80;;;;;;;1.10;100.00;96789.77;107021;1253;71102;-77
2023/01/19 10:32:10;;;;;;;59.80;32.30;;;;;;;1.15;100.00;96791.63;107108;1253;63961;-78
2023/01/19 10:34:36;;;;;;;47.20;26.80;;;;;;;1.15;100.00;96786.71;107319;1259;61419;-79
2023/01/19 10:37:16;;;;;;;65.30;33.60;;;;;;;1.17;100.00;96784.02;107524;1253;61070;-76
2023/01/19 10:39:50;;;;;;;40.20;23.60;;;;;;;1.20;100.00;96792.00;106944;1253;74545;-79
2023/01/19 10:42:17;;;;;;;47.50;25.80;;;;;;;1.19;100.00;96795.05;107667;1258;71192;-76
2023/01/19 10:44:46;;;;;;;44.10;25.30;;;;;;;1.16;100.00;96797.14;107586;1256;72504;-77
2023/01/19 10:47:17;;;;;;;47.70;26.80;;;;;;;1.20;100.00;96794.10;108240;1254;59821;-78
2023/01/19 10:49:44;;;;;;;46.40;26.70;;;;;;;1.16;100.00;96786.84;107250;1255;59929;-76
2023/01/19 10:52:29;;;;;;;47.00;25.50;;;;;;;1.13;100.00;96786.06;107905;1254;74522;-78
2023/01/19 10:54:55;;;;;;;38.10;20.20;;;;;;;1.17;100.00;96786.46;107519;1254;71106;-78
2023/01/19 10:57:42;;;;;;;79.50;40.50;;;;;;;1.19;100.00;96783.94;107458;1255;62412;-76
2023/01/19 11:00:38;;;;;;;44.40;27.70;;;;;;;1.20;100.00;96787.54;107937;1256;61911;-77
2023/01/19 11:03:23;;;;;;;45.60;25.40;;;;;;;1.14;100.00;96787.99;108355;1254;60789;-79
2023/01/19 11:05:50;;;;;;;43.40;26.70;;;;;;;1.11;100.00;96786.96;108176;1254;74800;-79
2023/01/19 11:08:27;;;;;;;37.10;23.50;;;;;;;1.10;100.00;96786.08;108969;1254;71195;-77
2023/01/19 11:11:01;;;;;;;42.10;25.50;;;;;;;1.05;100.00;96783.41;108604;1254;72537;-78
2023/01/19 11:13:27;;;;;;;39.60;22.30;;;;;;;0.97;100.00;96780.43;108488;1256;61668;-78
2023/01/19 11:16:04;;;;;;;31.20;19.80;;;;;;;0.94;100.00;96779.16;107273;1254;61208;-77
2023/01/19 11:18:33;;;;;;;39.60;23.00;;;;;;;0.85;100.00;96781.45;107929;1257;74627;-76
2023/01/19 11:21:24;;;;;;;46.70;31.20;;;;;;;0.90;100.00;96783.48;107319;1253;71050;-78
2023/01/19 11:23:52;;;;;;;44.00;24.80;;;;;;;0.78;100.00;96776.23;108272;1254;72934;-76
2023/01/19 11:26:39;;;;;;;44.00;26.60;;;;;;;0.88;100.00;96770.13;107253;1253;61453;-78